Terminal Aerodrome Forecast
Issued by NWS Portland, OR

Home | Current Version | Previous Version | Text Only | Print | Product List | Glossary On
Versions: 1 2 3 4 5 6 7 8 9 10 11 12 13 14 15 16 17 18 19 20 21 22 23 24 25 26 27 28 29 30 31 32 33 34 35 36 37
000
FTUS46 KPQR 012345 CCA
TAFAST
TAF COR
KAST 012345Z 0200/0224 VRB05KT P6SM VCSH SCT009 BKN017 BKN026
      TEMPO 0200/0203 BKN009 OVC014
     FM020300 19005KT 5SM BR SCT008 BKN015
     FM020600 12003KT 2SM BR OVC007
     FM021400 15009KT P6SM -RA SCT007 BKN012
     FM021700 20012G20KT 4SM RA BR OVC008=

USA.gov is the U.S. government's official web portal to all federal, state and local government web resources and services.